createdAt,value
2018-06-16T00:01:07.436Z,96
2018-06-16T00:02:07.328Z,96
2018-06-16T00:03:08.463Z,95.9
2018-06-16T00:04:08.758Z,95.9
2018-06-16T00:05:10.311Z,95.8
2018-06-16T00:06:10.428Z,95.8
2018-06-16T00:07:10.338Z,95.8
2018-06-16T00:08:10.241Z,95.6
2018-06-16T00:09:10.335Z,95.7
2018-06-16T00:10:11.463Z,95.5
2018-06-16T00:11:11.615Z,95.5
2018-06-16T00:12:11.502Z,95.6
2018-06-16T00:13:14.044Z,95.6
2018-06-16T00:14:14.444Z,95.7
2018-06-16T00:15:15.308Z,95.7
2018-06-16T00:16:15.197Z,95.7
2018-06-16T00:17:18.307Z,95.7
2018-06-16T00:18:24.766Z,95.7
2018-06-16T00:19:24.626Z,95.7
2018-06-16T00:20:24.723Z,95.6
2018-06-16T00:21:27.654Z,95.7
2018-06-16T00:22:28.546Z,95.7
2018-06-16T00:23:31.053Z,95.6
2018-06-16T00:24:34.295Z,95.7
2018-06-16T00:25:34.168Z,95.8
2018-06-16T00:26:34.035Z,96.2
2018-06-16T00:27:33.943Z,95.9
2018-06-16T00:28:36.876Z,96.1
2018-06-16T00:29:38.417Z,96.1
2018-06-16T00:30:41.249Z,96.2
2018-06-16T00:31:43.801Z,96.4
2018-06-16T00:32:46.680Z,96.4
2018-06-16T00:33:47.884Z,96.5
2018-06-16T00:34:48.459Z,96.6
2018-06-16T00:35:52.275Z,96.5
2018-06-16T00:36:52.143Z,96.5
2018-06-16T00:37:52.021Z,96.6
2018-06-16T00:38:52.910Z,96.7
2018-06-16T00:39:52.785Z,96.6
2018-06-16T00:40:52.657Z,97.1
2018-06-16T00:41:55.423Z,96.7
2018-06-16T00:42:56.327Z,96.6
2018-06-16T00:43:56.709Z,96.7
2018-06-16T00:44:57.232Z,96.7
2018-06-16T00:45:57.107Z,96.7
2018-06-16T00:47:00.101Z,96.6
2018-06-16T00:48:02.791Z,96.6
2018-06-16T00:49:05.688Z,96.6
2018-06-16T00:50:05.784Z,96.6
2018-06-16T00:51:06.345Z,96.7
2018-06-16T00:52:06.244Z,97
2018-06-16T00:53:08.844Z,96.9
2018-06-16T00:54:16.621Z,96.9
2018-06-16T00:55:20.908Z,97.1
2018-06-16T00:56:20.794Z,97.1
2018-06-16T00:57:23.355Z,97.1
2018-06-16T00:58:26.454Z,97.1
2018-06-16T00:59:26.346Z,97.2
2018-06-16T01:00:26.221Z,97.6
2018-06-16T01:01:26.983Z,97.2
2018-06-16T01:02:26.877Z,97.2
2018-06-16T01:03:29.782Z,97.2
2018-06-16T01:04:29.677Z,97.3
2018-06-16T01:05:40.391Z,97.4
2018-06-16T01:06:41.253Z,97.5
2018-06-16T01:07:44.114Z,97.6
2018-06-16T01:08:43.999Z,97.6
2018-06-16T01:09:44.116Z,97.6
2018-06-16T01:10:52.135Z,97.4
2018-06-16T01:11:53.233Z,97.6
2018-06-16T01:12:53.096Z,97.6
2018-06-16T01:13:55.551Z,97.7
2018-06-16T01:14:58.283Z,97.8
2018-06-16T01:15:59.822Z,98.1
2018-06-16T01:17:02.675Z,98.3
2018-06-16T01:18:02.571Z,98
2018-06-16T01:19:03.470Z,98.1
2018-06-16T01:20:03.375Z,97.9
2018-06-16T01:21:06.236Z,97.9
2018-06-16T01:22:08.892Z,97.9
2018-06-16T01:23:08.791Z,98
2018-06-16T01:24:11.655Z,97.9
2018-06-16T01:25:11.999Z,98.1
2018-06-16T01:26:12.501Z,98
2018-06-16T01:27:12.368Z,98.1
2018-06-16T01:28:15.067Z,97.9
2018-06-16T01:29:14.934Z,98
2018-06-16T01:30:18.723Z,98.1
2018-06-16T01:31:19.098Z,98.2
2018-06-16T01:32:19.195Z,98.2
2018-06-16T01:33:19.292Z,98.3
2018-06-16T01:34:19.867Z,98.3
2018-06-16T01:35:19.829Z,98.2
2018-06-16T01:36:20.124Z,98.3
2018-06-16T01:37:20.041Z,98.3
2018-06-16T01:38:22.143Z,98.4
2018-06-16T01:39:27.936Z,98.3
2018-06-16T01:40:28.093Z,98.4
2018-06-16T01:41:29.234Z,98.2
2018-06-16T01:42:29.100Z,98.4
2018-06-16T01:43:28.976Z,98.5
2018-06-16T01:44:28.853Z,98.4
2018-06-16T01:45:28.767Z,98.5
2018-06-16T01:46:29.284Z,98.5
2018-06-16T01:47:29.190Z,98.4
2018-06-16T01:48:29.090Z,98.5
2018-06-16T01:49:28.948Z,98.4
2018-06-16T01:50:29.079Z,98.6
2018-06-16T01:51:28.984Z,98.7
2018-06-16T01:52:29.887Z,98.7
2018-06-16T01:53:29.774Z,98.8
2018-06-16T01:54:30.292Z,98.7
2018-06-16T01:55:33.105Z,98.9
2018-06-16T01:56:34.086Z,98.9
2018-06-16T01:57:33.944Z,98.9
2018-06-16T01:58:33.838Z,98.9
2018-06-16T01:59:36.934Z,99
2018-06-16T02:00:36.797Z,99
2018-06-16T02:01:37.710Z,99.1
2018-06-16T02:02:37.567Z,99.2
2018-06-16T02:03:40.350Z,99.3
2018-06-16T02:04:40.232Z,99.3
2018-06-16T02:05:40.197Z,99.3
2018-06-16T02:06:43.755Z,99.2
2018-06-16T02:07:44.645Z,99.4
2018-06-16T02:08:44.540Z,99.4
2018-06-16T02:09:44.621Z,99.4
2018-06-16T02:10:44.500Z,99.4
2018-06-16T02:11:50.046Z,99.4
2018-06-16T02:12:53.900Z,99.3
2018-06-16T02:13:54.043Z,99.3
2018-06-16T02:14:53.913Z,99.2
2018-06-16T02:15:54.022Z,99.3
2018-06-16T02:16:57.591Z,99.3
2018-06-16T02:17:57.523Z,99.4
2018-06-16T02:18:57.465Z,99.4
2018-06-16T02:19:57.344Z,99.4
2018-06-16T02:20:57.192Z,99.4
2018-06-16T02:21:57.549Z,99.4
2018-06-16T02:22:57.417Z,99.3
2018-06-16T02:23:57.325Z,99.3
2018-06-16T02:24:57.240Z,99.2
2018-06-16T02:28:54.673Z,99
2018-06-16T02:29:54.551Z,99.1
2018-06-16T02:30:54.468Z,99
2018-06-16T02:31:55.363Z,99
2018-06-16T02:32:58.494Z,99
2018-06-16T02:34:03.251Z,99.1
2018-06-16T02:35:06.112Z,99.2
2018-06-16T02:36:06.180Z,99.2
2018-06-16T02:37:08.891Z,99.1
2018-06-16T02:38:08.795Z,99.2
2018-06-16T02:39:09.368Z,99.1
2018-06-16T02:40:14.914Z,99.1
2018-06-16T02:41:14.796Z,99.3
2018-06-16T02:42:14.719Z,99.4
2018-06-16T02:43:15.597Z,99.3
2018-06-16T02:44:18.086Z,99.5
2018-06-16T02:45:20.877Z,99.5
2018-06-16T02:46:20.773Z,99.7
2018-06-16T02:47:20.669Z,99.6
2018-06-16T02:48:23.194Z,99.6
2018-06-16T02:49:23.782Z,99.5
2018-06-16T02:50:24.027Z,99.4
2018-06-16T02:51:24.243Z,99.4
2018-06-16T02:52:29.888Z,99.5
2018-06-16T02:53:33.845Z,99.5
2018-06-16T02:54:37.648Z,99.6
2018-06-16T02:55:37.602Z,99.6
2018-06-16T02:56:37.535Z,99.6
2018-06-16T02:57:40.018Z,99.6
2018-06-16T02:58:42.484Z,99.7
2018-06-16T02:59:42.784Z,99.8
2018-06-16T03:00:45.790Z,99.8
2018-06-16T03:01:49.370Z,99.9
2018-06-16T03:02:59.624Z,99.9
2018-06-16T03:03:59.511Z,99.9
2018-06-16T03:04:59.410Z,99.9
2018-06-16T03:06:00.311Z,99.9
2018-06-16T03:07:09.379Z,99.9
2018-06-16T03:08:09.257Z,99.9
2018-06-16T03:09:10.155Z,99.9
2018-06-16T03:10:10.529Z,99.9
2018-06-16T03:11:11.398Z,99.9
2018-06-16T03:12:14.226Z,99.9
2018-06-16T03:13:14.096Z,99.9
2018-06-16T03:14:17.101Z,99.9
2018-06-16T03:15:17.266Z,99.9
2018-06-16T03:16:20.086Z,99.9
2018-06-16T03:17:21.979Z,99.9
2018-06-16T03:18:24.634Z,99.9
2018-06-16T03:19:28.027Z,99.9
2018-06-16T03:20:32.738Z,99.9
2018-06-16T03:21:33.054Z,99.9
2018-06-16T03:22:32.930Z,99.9
2018-06-16T03:23:32.958Z,99.9
2018-06-16T03:24:32.970Z,99.9
2018-06-16T03:25:32.857Z,99.9
2018-06-16T03:26:32.759Z,99.9
2018-06-16T03:27:33.639Z,99.9
2018-06-16T03:28:33.518Z,99.9
2018-06-16T03:29:36.364Z,99.9
2018-06-16T03:30:36.677Z,99.9
2018-06-16T03:31:37.583Z,99.9
2018-06-16T03:32:38.454Z,99.9
2018-06-16T03:33:38.543Z,99.9
2018-06-16T03:34:38.711Z,99.9
2018-06-16T03:35:38.609Z,99.9
2018-06-16T03:36:38.487Z,99.9
2018-06-16T03:37:42.857Z,99.9
2018-06-16T03:38:43.726Z,99.9
2018-06-16T03:39:43.810Z,99.9
2018-06-16T03:40:45.330Z,99.9
2018-06-16T03:41:48.985Z,99.9
2018-06-16T03:42:49.060Z,99.9
2018-06-16T03:43:49.160Z,99.9
2018-06-16T03:44:49.045Z,99.9
2018-06-16T03:45:49.255Z,99.9
2018-06-16T03:46:50.184Z,99.9
2018-06-16T03:47:52.638Z,99.9
2018-06-16T03:48:53.520Z,99.9
2018-06-16T03:49:53.643Z,99.9
2018-06-16T03:50:54.996Z,99.9
2018-06-16T03:51:57.454Z,99.9
2018-06-16T03:52:57.412Z,99.9
2018-06-16T03:53:57.310Z,99.9
2018-06-16T03:54:59.983Z,99.9
2018-06-16T03:55:59.894Z,99.9
2018-06-16T03:57:00.444Z,99.9
2018-06-16T03:58:00.556Z,99.9
2018-06-16T03:59:00.450Z,99.9
2018-06-16T04:00:03.452Z,99.9
2018-06-16T04:01:07.735Z,99.9
2018-06-16T04:02:07.820Z,99.9
2018-06-16T04:03:08.712Z,99.9
2018-06-16T04:04:09.631Z,99.9
2018-06-16T04:05:09.744Z,99.9
2018-06-16T04:06:09.642Z,99.9
2018-06-16T04:07:09.525Z,99.9
2018-06-16T04:08:09.457Z,99.9
2018-06-16T04:09:10.443Z,99.9
2018-06-16T04:10:10.321Z,99.9
2018-06-16T04:11:10.933Z,99.9
2018-06-16T04:12:13.700Z,99.9
2018-06-16T04:13:20.253Z,99.9
2018-06-16T04:14:21.174Z,99.9
2018-06-16T04:15:23.717Z,99.9
2018-06-16T04:16:23.606Z,99.9
2018-06-16T04:17:23.479Z,99.9
2018-06-16T04:18:23.349Z,99.9
2018-06-16T04:19:26.257Z,99.9
2018-06-16T04:20:26.148Z,99.9
2018-06-16T04:21:26.704Z,99.9
2018-06-16T04:22:29.649Z,99.9
2018-06-16T04:23:29.576Z,99.9
2018-06-16T04:24:30.127Z,99.9
2018-06-16T04:25:31.006Z,99.9
2018-06-16T04:26:31.146Z,99.9
2018-06-16T04:27:31.011Z,99.9
2018-06-16T04:28:31.905Z,99.9
2018-06-16T04:29:31.822Z,99.9
2018-06-16T04:30:31.703Z,99.9
2018-06-16T04:31:33.030Z,99.9
2018-06-16T04:32:32.938Z,99.9
2018-06-16T04:33:32.857Z,99.9
2018-06-16T04:34:32.734Z,99.9
2018-06-16T04:35:35.572Z,99.9
2018-06-16T04:36:35.937Z,99.9
2018-06-16T04:37:35.855Z,99.9
2018-06-16T04:38:35.738Z,99.9
2018-06-16T04:39:35.627Z,99.9
2018-06-16T04:40:35.512Z,99.9
2018-06-16T04:41:38.119Z,99.8
2018-06-16T04:42:38.011Z,99.9
2018-06-16T04:43:37.873Z,99.9
2018-06-16T04:44:40.584Z,99.8
2018-06-16T04:45:41.413Z,99.8
2018-06-16T04:46:41.655Z,99.7
2018-06-16T04:47:41.814Z,99.6
2018-06-16T04:48:42.697Z,99.6
2018-06-16T04:49:45.589Z,99.6
2018-06-16T04:50:45.539Z,99.7
2018-06-16T04:51:45.857Z,99.6
2018-06-16T04:52:45.764Z,99.8
2018-06-16T04:53:45.637Z,99.7
2018-06-16T04:54:45.557Z,99.7
2018-06-16T04:55:45.413Z,99.7
2018-06-16T04:56:45.535Z,99.9
2018-06-16T04:57:45.406Z,99.7
2018-06-16T04:58:45.269Z,99.9
2018-06-16T04:59:45.135Z,99.9
2018-06-16T05:00:45.013Z,99.9
2018-06-16T05:01:45.380Z,99.9
2018-06-16T05:02:45.268Z,99.9
2018-06-16T05:03:45.134Z,99.8
2018-06-16T05:04:48.165Z,99.8
2018-06-16T05:05:48.038Z,99.7
2018-06-16T05:06:47.931Z,99.6
2018-06-16T05:07:48.842Z,99.2
2018-06-16T05:08:48.726Z,99.3
2018-06-16T05:09:48.589Z,99
2018-06-16T05:10:48.449Z,99
2018-06-16T05:11:51.624Z,98.8
2018-06-16T05:12:51.521Z,98.7
2018-06-16T05:13:51.399Z,98.7
2018-06-16T05:14:51.544Z,98.5
2018-06-16T05:15:51.418Z,98.6
2018-06-16T05:16:51.358Z,98.5
2018-06-16T05:17:51.325Z,98.5
2018-06-16T05:18:51.221Z,98.4
2018-06-16T05:19:53.997Z,98.4
2018-06-16T05:20:53.861Z,98.3
2018-06-16T05:21:54.610Z,98.2
2018-06-16T05:22:54.561Z,98.4
2018-06-16T05:23:54.460Z,98.5
2018-06-16T05:24:54.329Z,98.2
2018-06-16T05:25:54.244Z,98.3
2018-06-16T05:26:54.119Z,98.4
2018-06-16T05:27:54.216Z,98.4
2018-06-16T05:28:54.136Z,98.5
2018-06-16T05:29:55.054Z,98.4
2018-06-16T05:30:55.153Z,97.6
2018-06-16T05:31:55.664Z,97.2
2018-06-16T05:32:55.753Z,97
2018-06-16T05:33:55.760Z,96.9
2018-06-16T05:34:56.076Z,96.4
2018-06-16T05:35:55.959Z,96
2018-06-16T05:36:55.868Z,95.5
2018-06-16T05:37:55.801Z,94.9
2018-06-16T05:38:55.726Z,94.6
2018-06-16T05:39:55.601Z,94
2018-06-16T05:40:55.471Z,93.9
2018-06-16T05:41:56.033Z,93.5
2018-06-16T05:42:55.924Z,93.2
2018-06-16T05:43:55.776Z,92.5
2018-06-16T05:44:55.664Z,92.1
2018-06-16T05:45:55.544Z,91.9
2018-06-16T05:46:55.433Z,91.8
2018-06-16T05:48:01.085Z,91.7
2018-06-16T05:49:00.944Z,90.9
2018-06-16T05:50:00.855Z,91
2018-06-16T05:51:02.701Z,91
2018-06-16T05:52:03.992Z,90.6
2018-06-16T05:53:03.867Z,90
2018-06-16T05:54:04.137Z,90.3
2018-06-16T05:55:04.203Z,90.6
2018-06-16T05:56:04.095Z,90.5
2018-06-16T05:57:04.993Z,90.1
2018-06-16T05:58:04.885Z,90
2018-06-16T05:59:04.748Z,88.9
2018-06-16T06:00:04.657Z,87.8
2018-06-16T06:01:04.555Z,87.4
2018-06-16T06:02:04.893Z,87.5
2018-06-16T06:03:04.818Z,87.8
2018-06-16T06:04:04.719Z,86.6
2018-06-16T06:05:07.222Z,85.6
2018-06-16T06:06:07.113Z,86.7
2018-06-16T06:07:07.022Z,87.3
2018-06-16T06:08:06.916Z,86
2018-06-16T06:09:07.792Z,84.5
2018-06-16T06:10:07.708Z,84.9
2018-06-16T06:11:07.607Z,84.3
2018-06-16T06:12:07.907Z,83.5
2018-06-16T06:13:07.949Z,80.9
2018-06-16T06:14:10.810Z,80.8
2018-06-16T06:15:10.733Z,80.7
2018-06-16T06:16:10.607Z,80.9
2018-06-16T06:17:10.508Z,82.6
2018-06-16T06:18:10.383Z,83.6
2018-06-16T06:19:14.039Z,82.8
2018-06-16T06:20:13.953Z,83
2018-06-16T06:21:13.858Z,84
2018-06-16T06:22:14.145Z,82.1
2018-06-16T06:23:14.244Z,80.9
2018-06-16T06:24:14.126Z,79.2
2018-06-16T06:25:14.248Z,79.6
2018-06-16T06:26:14.143Z,78.6
2018-06-16T06:27:14.028Z,79.2
2018-06-16T06:28:13.923Z,79.6
2018-06-16T06:29:13.802Z,80.6
2018-06-16T06:30:14.182Z,78.5
2018-06-16T06:31:14.074Z,79
2018-06-16T06:32:15.411Z,78.9
2018-06-16T06:33:15.344Z,78.9
2018-06-16T06:34:15.238Z,79.1
2018-06-16T06:35:15.137Z,79.4
2018-06-16T06:36:17.982Z,78.9
2018-06-16T06:37:18.216Z,79.5
2018-06-16T06:38:18.416Z,79.5
2018-06-16T06:39:18.299Z,79.2
2018-06-16T06:40:18.243Z,79.2
2018-06-16T06:41:18.354Z,79
2018-06-16T06:42:18.662Z,79
2018-06-16T06:43:18.865Z,80.3
2018-06-16T06:44:18.815Z,77.5
2018-06-16T06:45:21.522Z,75.8
2018-06-16T06:46:21.488Z,77.1
2018-06-16T06:47:21.368Z,76.4
2018-06-16T06:48:21.276Z,75.1
2018-06-16T06:49:21.156Z,73.8
2018-06-16T06:50:21.107Z,74.5
2018-06-16T06:51:20.966Z,73.9
2018-06-16T06:52:21.487Z,74.5
2018-06-16T06:53:21.360Z,74.3
2018-06-16T06:54:21.259Z,70.6
2018-06-16T06:55:21.343Z,70
2018-06-16T06:56:21.270Z,71.2
2018-06-16T06:57:21.184Z,69.9
2018-06-16T06:58:21.313Z,69.9
2018-06-16T06:59:21.194Z,69.7
2018-06-16T07:00:21.285Z,69.2
2018-06-16T07:01:21.175Z,69.9
2018-06-16T07:02:22.378Z,70.4
2018-06-16T07:03:22.256Z,71.2
2018-06-16T07:04:22.371Z,70.9
2018-06-16T07:05:22.241Z,73.3
2018-06-16T07:06:22.356Z,73.8
2018-06-16T07:07:22.926Z,71.5
2018-06-16T07:08:25.634Z,71.9
2018-06-16T07:09:25.911Z,73.6
2018-06-16T07:11:30.837Z,73
2018-06-16T07:12:31.172Z,72.8
2018-06-16T07:13:31.330Z,69.8
2018-06-16T07:14:31.203Z,67.7
2018-06-16T07:15:31.085Z,68
2018-06-16T07:16:31.176Z,69.8
2018-06-16T07:17:31.067Z,68.9
2018-06-16T07:18:31.631Z,68.2
2018-06-16T07:19:31.724Z,66.4
2018-06-16T07:20:31.600Z,67
2018-06-16T07:21:31.704Z,66.6
2018-06-16T07:22:31.994Z,67.4
2018-06-16T07:23:31.999Z,66.8
2018-06-16T07:24:32.142Z,66
2018-06-16T07:25:32.016Z,66.6
2018-06-16T07:26:31.936Z,66.9
2018-06-16T07:27:31.826Z,65.9
2018-06-16T07:28:31.781Z,67.5
2018-06-16T07:29:31.662Z,66.3
2018-06-16T07:30:31.531Z,67
2018-06-16T07:31:31.406Z,67.6
2018-06-16T07:32:31.914Z,69.1
2018-06-16T07:33:31.809Z,68.3
2018-06-16T07:34:31.696Z,66.5
2018-06-16T07:35:31.557Z,65.1
2018-06-16T07:36:32.456Z,66.8
2018-06-16T07:37:32.340Z,65
2018-06-16T07:38:32.264Z,66.2
2018-06-16T07:39:32.346Z,66.7
2018-06-16T07:40:33.245Z,66.4
2018-06-16T07:41:33.331Z,66
2018-06-16T07:42:33.954Z,66
2018-06-16T07:43:33.870Z,65.7
2018-06-16T07:44:33.761Z,65.7
2018-06-16T07:45:33.662Z,64.7
2018-06-16T07:46:33.550Z,65.3
2018-06-16T07:47:33.434Z,65.7
2018-06-16T07:48:33.344Z,66.5
2018-06-16T07:49:33.234Z,67.2
2018-06-16T07:50:33.124Z,66.9
2018-06-16T07:51:33.030Z,67.9
2018-06-16T07:52:39.210Z,66.2
2018-06-16T07:53:39.096Z,67.5
2018-06-16T07:54:39.015Z,67.5
2018-06-16T07:55:38.932Z,66
2018-06-16T07:56:38.966Z,66.4
2018-06-16T07:57:38.947Z,64.8
2018-06-16T07:58:38.823Z,64.1
2018-06-16T07:59:38.705Z,63
2018-06-16T08:00:38.616Z,61.7
2018-06-16T08:01:38.546Z,62
2018-06-16T08:02:39.842Z,63.7
2018-06-16T08:03:39.729Z,62.8
2018-06-16T08:04:39.679Z,62.9
2018-06-16T08:05:39.558Z,63.3
2018-06-16T08:06:39.426Z,64.4
2018-06-16T08:07:39.365Z,63.9
2018-06-16T08:08:39.224Z,65
2018-06-16T08:09:39.093Z,65
2018-06-16T08:10:41.555Z,64.7
2018-06-16T08:11:41.668Z,65.4
2018-06-16T08:12:47.594Z,66.9
2018-06-16T08:13:47.559Z,63.9
2018-06-16T08:14:47.436Z,63.5
2018-06-16T08:15:47.331Z,65.3
2018-06-16T08:16:48.234Z,66.3
2018-06-16T08:17:48.114Z,63.9
2018-06-16T08:18:47.998Z,62.8
2018-06-16T08:19:47.869Z,62.7
2018-06-16T08:20:47.763Z,62.6
2018-06-16T08:21:48.292Z,62.3
2018-06-16T08:22:48.577Z,64.3
2018-06-16T08:23:48.685Z,64.7
2018-06-16T08:24:48.566Z,63.6
2018-06-16T08:25:48.472Z,65.3
2018-06-16T08:26:49.047Z,65.6
2018-06-16T08:27:48.942Z,66.5
2018-06-16T08:28:48.800Z,68.2
2018-06-16T08:29:51.368Z,67.8
2018-06-16T08:30:51.306Z,68.3
2018-06-16T08:31:51.212Z,67.5
2018-06-16T08:32:51.500Z,66.9
2018-06-16T08:33:51.379Z,65.4
2018-06-16T08:34:51.640Z,64
2018-06-16T08:35:51.677Z,64.9
2018-06-16T08:36:51.571Z,63.6
2018-06-16T08:37:51.616Z,63.4
2018-06-16T08:38:51.719Z,62.7
2018-06-16T08:39:51.709Z,63.5
2018-06-16T08:40:51.595Z,64.3
2018-06-16T08:41:51.475Z,65
2018-06-16T08:42:54.401Z,65.2
2018-06-16T08:43:54.284Z,64.1
2018-06-16T08:44:54.155Z,64.4
2018-06-16T08:45:56.668Z,63.6
2018-06-16T08:46:56.583Z,62.3
2018-06-16T08:47:56.477Z,63.6
2018-06-16T08:49:00.307Z,63.8
2018-06-16T08:50:00.232Z,61.5
2018-06-16T08:51:00.134Z,61.9
2018-06-16T08:52:00.031Z,62.7
2018-06-16T08:53:00.356Z,63.5
2018-06-16T08:54:00.244Z,63.5
2018-06-16T08:55:00.172Z,61.9
2018-06-16T08:56:00.039Z,63.6
2018-06-16T08:56:59.927Z,64.8
2018-06-16T08:57:59.826Z,61.8
2018-06-16T08:58:59.733Z,61.4
2018-06-16T08:59:59.620Z,60.8
2018-06-16T09:00:59.499Z,60.6
2018-06-16T09:01:59.385Z,62
2018-06-16T09:02:59.675Z,61.8
2018-06-16T09:04:02.176Z,60.9
2018-06-16T09:05:02.062Z,63.4
2018-06-16T09:06:01.957Z,61.6
2018-06-16T09:07:04.514Z,64
2018-06-16T09:08:04.413Z,62.8
2018-06-16T09:09:04.314Z,59.5
2018-06-16T09:10:04.188Z,60.8
2018-06-16T09:11:05.088Z,61.8
2018-06-16T09:12:04.969Z,61.1
2018-06-16T09:13:05.306Z,62.4
2018-06-16T09:14:05.188Z,60.9
2018-06-16T09:15:05.141Z,60.9
2018-06-16T09:16:05.025Z,61.5
2018-06-16T09:17:04.904Z,60
2018-06-16T09:18:04.790Z,61.1
2018-06-16T09:19:04.672Z,62.1
2018-06-16T09:20:04.585Z,62.8
2018-06-16T09:21:04.496Z,62.7
2018-06-16T09:22:04.358Z,62
2018-06-16T09:23:04.940Z,60.9
2018-06-16T09:24:04.824Z,62.2
2018-06-16T09:25:04.769Z,63.7
2018-06-16T09:26:04.658Z,63.8
2018-06-16T09:27:04.547Z,63
2018-06-16T09:28:04.741Z,62.4
2018-06-16T09:29:04.969Z,63.2
2018-06-16T09:30:04.855Z,64.3
2018-06-16T09:31:04.737Z,63.4
2018-06-16T09:32:04.620Z,65.3
2018-06-16T09:33:13.509Z,62.4
2018-06-16T09:34:13.410Z,64.2
2018-06-16T09:35:13.302Z,64.1
2018-06-16T09:36:13.333Z,65
2018-06-16T09:37:13.419Z,64.8
2018-06-16T09:38:13.285Z,63.5
2018-06-16T09:39:13.171Z,64
2018-06-16T09:40:13.054Z,63.7
2018-06-16T09:41:12.948Z,64.9
2018-06-16T09:42:12.832Z,64.8
2018-06-16T09:43:13.172Z,63.9
2018-06-16T09:44:13.117Z,63.7
2018-06-16T09:45:12.997Z,60.5
2018-06-16T09:46:12.901Z,62
2018-06-16T09:47:12.761Z,62.6
2018-06-16T09:48:12.829Z,62.5
2018-06-16T09:49:12.992Z,61.7
2018-06-16T09:50:12.898Z,62.7
2018-06-16T09:51:12.790Z,64.3
2018-06-16T09:52:12.651Z,63.3
2018-06-16T09:53:12.980Z,62.8
2018-06-16T09:54:12.844Z,60.9
2018-06-16T09:55:12.759Z,58.6
2018-06-16T09:56:12.669Z,60.7
2018-06-16T09:57:12.579Z,61.3
2018-06-16T09:58:12.435Z,60.8
2018-06-16T09:59:12.314Z,59.8
2018-06-16T10:00:12.440Z,59.2
2018-06-16T10:01:12.347Z,60.9
2018-06-16T10:02:12.249Z,60.9
2018-06-16T10:03:12.667Z,59.7
2018-06-16T10:04:12.676Z,58.1
2018-06-16T10:05:12.546Z,56.5
2018-06-16T10:06:12.432Z,56.6
2018-06-16T10:07:12.349Z,57.6
2018-06-16T10:08:12.223Z,59.8
2018-06-16T10:09:12.088Z,58.5
2018-06-16T10:10:12.217Z,59.8
2018-06-16T10:11:12.115Z,60.3
2018-06-16T10:12:12.212Z,59.5
2018-06-16T10:13:13.508Z,60.3
2018-06-16T10:14:22.609Z,60.7
2018-06-16T10:15:22.713Z,58.6
2018-06-16T10:16:22.593Z,57.8
2018-06-16T10:17:22.486Z,55.9
2018-06-16T10:18:22.367Z,57.2
2018-06-16T10:19:22.278Z,55.9
2018-06-16T10:20:22.180Z,57.3
2018-06-16T10:21:22.419Z,56.8
2018-06-16T10:22:22.485Z,56.4
2018-06-16T10:23:22.815Z,54.9
2018-06-16T10:24:22.685Z,54.9
2018-06-16T10:25:22.550Z,55.2
2018-06-16T10:26:22.424Z,54.6
2018-06-16T10:27:22.539Z,54.1
2018-06-16T10:28:22.404Z,54.3
2018-06-16T10:29:22.272Z,53.5
2018-06-16T10:30:22.163Z,53.6
2018-06-16T10:31:22.045Z,55.3
2018-06-16T10:32:21.955Z,54.2
2018-06-16T10:33:22.332Z,52.8
2018-06-16T10:34:22.213Z,50.2
2018-06-16T10:35:25.840Z,51.9
2018-06-16T10:36:26.027Z,52.5
2018-06-16T10:37:26.354Z,52.1
2018-06-16T10:38:26.464Z,50.6
2018-06-16T10:39:26.381Z,50.5
2018-06-16T10:40:26.260Z,51.4
2018-06-16T10:41:26.362Z,51.7
2018-06-16T10:42:26.463Z,52.5
2018-06-16T10:43:26.814Z,49.8
2018-06-16T10:44:26.899Z,49.3
2018-06-16T10:45:26.828Z,50.6
2018-06-16T10:46:26.724Z,51.3
2018-06-16T10:47:26.603Z,51.3
2018-06-16T10:48:26.504Z,52.8
2018-06-16T10:49:26.376Z,51
2018-06-16T10:50:26.256Z,51.7
2018-06-16T10:51:26.161Z,53.8
2018-06-16T10:52:26.043Z,50.7
2018-06-16T10:53:26.368Z,50.7
2018-06-16T10:54:26.534Z,51.2
2018-06-16T10:55:26.408Z,51.1
2018-06-16T10:56:26.290Z,51.7
2018-06-16T10:57:26.171Z,52.3
2018-06-16T10:58:26.285Z,49.5
2018-06-16T10:59:26.409Z,50.2
2018-06-16T11:00:26.548Z,50.9
2018-06-16T11:01:26.537Z,49.9
2018-06-16T11:02:26.409Z,52.2
2018-06-16T11:03:26.694Z,49.6
2018-06-16T11:04:26.573Z,47.7
2018-06-16T11:05:29.464Z,48
2018-06-16T11:06:29.375Z,46.7
2018-06-16T11:07:29.274Z,48.7
2018-06-16T11:08:29.142Z,49.9
2018-06-16T11:09:29.060Z,49.2
2018-06-16T11:10:28.939Z,49.3
2018-06-16T11:11:28.819Z,47.9
2018-06-16T11:12:28.730Z,48.7
2018-06-16T11:13:29.068Z,47.4
2018-06-16T11:14:28.949Z,47.5
2018-06-16T11:15:28.825Z,48.8
2018-06-16T11:16:28.934Z,47.1
2018-06-16T11:17:28.837Z,49.4
2018-06-16T11:18:28.718Z,48.5
2018-06-16T11:19:28.606Z,50.2
2018-06-16T11:20:28.506Z,50.1
2018-06-16T11:21:28.402Z,47.2
2018-06-16T11:22:28.296Z,47.6
2018-06-16T11:23:28.824Z,46.8
2018-06-16T11:24:28.704Z,48.3
2018-06-16T11:25:28.611Z,50
2018-06-16T11:26:28.481Z,48.5
2018-06-16T11:27:28.372Z,46.7
2018-06-16T11:28:28.250Z,45.9
2018-06-16T11:29:28.140Z,48.1
2018-06-16T11:30:28.261Z,45.8
2018-06-16T11:31:28.536Z,46.8
2018-06-16T11:32:28.394Z,47
2018-06-16T11:33:28.724Z,45.4
2018-06-16T11:34:28.822Z,45.7
2018-06-16T11:35:28.700Z,45.7
2018-06-16T11:36:28.584Z,45.6
2018-06-16T11:37:28.466Z,47.7
2018-06-16T11:38:28.434Z,46.5
2018-06-16T11:39:28.323Z,47.2
2018-06-16T11:40:28.210Z,48.8
2018-06-16T11:41:31.698Z,47.4
2018-06-16T11:42:31.572Z,48.6
2018-06-16T11:43:32.075Z,48.4
2018-06-16T11:44:31.973Z,47.2
2018-06-16T11:45:31.835Z,45.6
2018-06-16T11:46:31.744Z,45.8
2018-06-16T11:47:31.638Z,48.3
2018-06-16T11:48:31.514Z,49.6
2018-06-16T11:49:31.386Z,48.1
2018-06-16T11:50:31.264Z,46.6
2018-06-16T11:51:31.170Z,46.3
2018-06-16T11:52:31.064Z,47.3
2018-06-16T11:53:31.342Z,47.1
2018-06-16T11:54:31.211Z,47.1
2018-06-16T11:55:31.079Z,47.9
2018-06-16T11:56:30.948Z,46.5
2018-06-16T11:57:30.838Z,46.9
2018-06-16T11:58:30.995Z,47.4
2018-06-16T11:59:30.872Z,46.5
2018-06-16T12:00:30.776Z,47.6
2018-06-16T12:01:30.666Z,47.2
2018-06-16T12:02:30.560Z,47.9
2018-06-16T12:03:31.005Z,46.7
2018-06-16T12:04:30.890Z,44.7
2018-06-16T12:05:30.782Z,44.3
2018-06-16T12:06:30.661Z,45.4
2018-06-16T12:07:30.546Z,47.1
2018-06-16T12:08:30.451Z,46.6
2018-06-16T12:09:30.349Z,44
2018-06-16T12:10:30.237Z,45.6
2018-06-16T12:11:30.125Z,45.9
2018-06-16T12:12:30.231Z,45.7
2018-06-16T12:13:31.514Z,46.6
2018-06-16T12:14:31.388Z,46.8
2018-06-16T12:15:31.251Z,47.2
2018-06-16T12:16:31.146Z,47.1
2018-06-16T12:17:31.012Z,45.8
2018-06-16T12:18:30.921Z,46.2
2018-06-16T12:19:30.800Z,46.3
2018-06-16T12:20:30.675Z,46.9
2018-06-16T12:21:30.562Z,47
2018-06-16T12:22:30.430Z,46.1
2018-06-16T12:23:39.575Z,45.9
2018-06-16T12:24:39.463Z,46.7
2018-06-16T12:25:39.354Z,47.8
2018-06-16T12:26:39.224Z,46.3
2018-06-16T12:27:39.104Z,46.5
2018-06-16T12:28:39.004Z,46.9
2018-06-16T12:29:39.321Z,48.9
2018-06-16T12:30:39.301Z,48.5
2018-06-16T12:31:39.183Z,47.8
2018-06-16T12:32:39.289Z,48.6
2018-06-16T12:33:39.596Z,47.9
2018-06-16T12:34:39.497Z,48.1
2018-06-16T12:35:39.368Z,46.2
2018-06-16T12:36:48.230Z,47.7
2018-06-16T12:37:48.102Z,48.4
2018-06-16T12:38:48.463Z,48.5
2018-06-16T12:39:48.340Z,48.7
2018-06-16T12:40:48.215Z,48.6
2018-06-16T12:41:48.101Z,48.5
2018-06-16T12:42:47.976Z,47.6
2018-06-16T12:43:48.257Z,48.6
2018-06-16T12:44:48.159Z,48.7
2018-06-16T12:45:48.048Z,48.5
2018-06-16T12:46:47.937Z,48.6
2018-06-16T12:47:47.838Z,48.6
2018-06-16T12:48:47.715Z,48.9
2018-06-16T12:49:47.604Z,49.3
2018-06-16T12:50:47.881Z,49.2
2018-06-16T12:51:47.854Z,50.3
2018-06-16T12:52:47.763Z,50.6
2018-06-16T12:53:48.080Z,50.2
2018-06-16T12:54:47.991Z,50
2018-06-16T12:55:47.871Z,50.7
2018-06-16T12:56:47.961Z,50.3
2018-06-16T12:57:48.074Z,50.6
2018-06-16T12:58:48.053Z,51.5
2018-06-16T12:59:47.964Z,51.3
2018-06-16T13:00:47.835Z,51
2018-06-16T13:01:47.716Z,52.4
2018-06-16T13:02:47.585Z,52.2
2018-06-16T13:03:47.899Z,51.2
2018-06-16T13:04:47.791Z,50.7
2018-06-16T13:05:47.675Z,50
2018-06-16T13:06:47.551Z,48.7
2018-06-16T13:07:48.419Z,49.9
2018-06-16T13:08:48.299Z,50.1
2018-06-16T13:09:49.176Z,50.4
2018-06-16T13:10:49.051Z,51.2
2018-06-16T13:11:48.911Z,51.5
2018-06-16T13:12:48.793Z,51.4
2018-06-16T13:13:49.076Z,51.6
2018-06-16T13:14:48.977Z,53.3
2018-06-16T13:15:48.847Z,52.4
2018-06-16T13:16:48.742Z,50.5
2018-06-16T13:17:48.635Z,50.1
2018-06-16T13:18:48.529Z,49.3
2018-06-16T13:19:48.409Z,51.2
2018-06-16T13:20:48.292Z,50.9
2018-06-16T13:21:48.184Z,50.6
2018-06-16T13:22:48.056Z,50.6
2018-06-16T13:23:48.879Z,50.7
2018-06-16T13:24:48.994Z,51.6
2018-06-16T13:25:49.198Z,52
2018-06-16T13:26:49.099Z,51.6
2018-06-16T13:27:48.993Z,51.7
2018-06-16T13:28:48.872Z,52.2
2018-06-16T13:29:48.802Z,52.5
2018-06-16T13:30:48.938Z,52.8
2018-06-16T13:31:48.828Z,52.5
2018-06-16T13:32:48.719Z,51.8
2018-06-16T13:33:49.000Z,51.8
2018-06-16T13:34:48.899Z,52.3